Time;durP1;ratioP1;P1;durP2;ratioP2;P2;SDS_P1;SDS_P2;PMS_P1;PMS_P2;Temp;Humidity;BMP_temperature;BMP_pressure;BME280_temperature;BME280_humidity;BME280_pressure;Samples;Min_cycle;Max_cycle;Signal;HPM_P1;HPM_P2
2022/11/17 00:01:42;;;;;;;50.57;29.83;;;;;;;10.28;100.00;93698.41;4998704;28;20524;-76
2022/11/17 00:04:10;;;;;;;52.37;30.20;;;;;;;10.39;100.00;93705.97;5031505;28;20942;-75
2022/11/17 00:06:37;;;;;;;51.23;29.27;;;;;;;10.45;100.00;93718.50;5014219;28;20488;-76
2022/11/17 00:09:04;;;;;;;48.67;29.37;;;;;;;10.47;100.00;93685.06;5031420;28;20479;-75
2022/11/17 00:14:31;;;;;;;39.93;27.20;;;;;;;10.34;100.00;93666.31;5031449;28;20444;-75
2022/11/17 00:14:31;;;;;;;49.57;30.37;;;;;;;10.42;100.00;93687.34;5031429;28;20525;-75
2022/11/17 00:16:58;;;;;;;42.07;27.23;;;;;;;10.45;100.00;93694.88;5031267;28;20444;-75
2022/11/17 00:22:11;;;;;;;57.20;30.23;;;;;;;10.42;100.00;93668.97;5078485;28;20445;-75
2022/11/17 00:24:38;;;;;;;50.20;33.43;;;;;;;10.44;100.00;93689.81;5074854;28;20490;-75
2022/11/17 00:27:04;;;;;;;44.77;29.47;;;;;;;10.45;100.00;93671.28;5093873;28;20457;-76
2022/11/17 00:29:31;;;;;;;38.83;27.60;;;;;;;10.47;100.00;93671.13;5058051;28;20458;-76
2022/11/17 00:34:43;;;;;;;41.83;26.10;;;;;;;10.15;100.00;93666.56;5063214;28;20560;-75
2022/11/17 00:37:11;;;;;;;37.10;25.43;;;;;;;10.24;100.00;93676.94;5057959;28;20461;-75
2022/11/17 00:39:38;;;;;;;40.20;26.37;;;;;;;10.37;100.00;93689.59;5093489;28;20446;-76
2022/11/17 00:42:05;;;;;;;45.57;27.57;;;;;;;10.40;100.00;93678.78;5093551;28;20492;-75
2022/11/17 00:44:32;;;;;;;45.30;25.17;;;;;;;10.32;100.00;93665.66;5093682;28;20477;-76
2022/11/17 00:46:58;;;;;;;39.20;26.70;;;;;;;10.38;100.00;93693.03;5093142;28;21002;-75
2022/11/17 00:49:25;;;;;;;39.33;23.73;;;;;;;10.29;100.00;93657.28;5093615;28;20503;-75
2022/11/17 00:51:54;;;;;;;40.87;25.60;;;;;;;10.20;100.00;93669.53;5093199;28;20444;-75
2022/11/17 00:54:21;;;;;;;41.23;23.70;;;;;;;10.31;100.00;93671.88;5093017;28;20492;-76
2022/11/17 00:56:48;;;;;;;35.77;24.50;;;;;;;10.28;100.00;93664.31;5093180;28;20933;-76
2022/11/17 00:59:16;;;;;;;45.67;26.30;;;;;;;10.34;100.00;93655.00;5093060;28;20449;-75
2022/11/17 01:01:43;;;;;;;42.10;26.50;;;;;;;10.26;100.00;93653.19;5092643;28;20473;-76
2022/11/17 01:04:12;;;;;;;57.53;29.97;;;;;;;10.23;100.00;93645.63;5092780;28;20449;-76
2022/11/17 01:06:40;;;;;;;40.23;26.27;;;;;;;10.30;100.00;93645.81;5093235;28;20928;-75
2022/11/17 01:09:12;;;;;;;41.67;25.80;;;;;;;10.39;100.00;93645.66;5092979;28;21019;-75
2022/11/17 01:11:38;;;;;;;38.93;25.27;;;;;;;10.35;100.00;93627.81;5092883;28;20443;-75
2022/11/17 01:14:05;;;;;;;33.73;24.43;;;;;;;10.36;100.00;93656.47;5092596;28;20481;-75
2022/11/17 01:16:33;;;;;;;38.27;24.67;;;;;;;10.41;100.00;93649.00;5092887;28;20946;-75
2022/11/17 01:19:01;;;;;;;36.47;22.30;;;;;;;10.43;100.00;93646.19;5091991;28;20448;-76
2022/11/17 01:21:29;;;;;;;31.70;21.60;;;;;;;10.41;100.00;93663.91;5092748;28;20954;-75
2022/11/17 01:23:58;;;;;;;38.60;23.13;;;;;;;10.42;100.00;93666.34;5092878;28;20448;-75
2022/11/17 01:26:28;;;;;;;37.77;21.10;;;;;;;10.39;100.00;93629.94;5092483;28;20947;-75
2022/11/17 01:28:55;;;;;;;34.80;18.90;;;;;;;10.33;100.00;93635.00;5092788;28;20439;-75
2022/11/17 01:31:24;;;;;;;24.63;17.20;;;;;;;10.41;100.00;93654.22;5073443;28;20442;-75
2022/11/17 01:33:51;;;;;;;28.50;18.40;;;;;;;10.42;100.00;93641.94;5092763;28;20461;-75
2022/11/17 01:36:20;;;;;;;25.17;14.90;;;;;;;10.38;100.00;93617.81;5092481;28;20449;-76
2022/11/17 01:38:47;;;;;;;32.17;17.40;;;;;;;10.45;100.00;93645.06;5092372;28;20498;-75
2022/11/17 01:41:16;;;;;;;22.17;16.17;;;;;;;10.46;100.00;93657.19;5092295;28;20442;-76
2022/11/17 01:43:46;;;;;;;34.73;20.60;;;;;;;10.41;100.00;93625.38;5092180;28;20449;-77
2022/11/17 01:46:22;;;;;;;29.90;19.63;;;;;;;10.43;100.00;93631.28;5092423;28;20446;-75
2022/11/17 01:48:50;;;;;;;27.57;20.30;;;;;;;10.48;100.00;93639.50;5092471;28;20507;-76
2022/11/17 01:51:18;;;;;;;37.93;22.93;;;;;;;10.51;100.00;93627.84;5057068;28;20510;-76
2022/11/17 01:53:49;;;;;;;39.67;20.90;;;;;;;10.49;100.00;93616.72;5092332;28;20489;-75
2022/11/17 01:56:19;;;;;;;37.03;19.80;;;;;;;10.58;100.00;93638.53;5092508;28;20450;-76
2022/11/17 01:58:54;;;;;;;31.50;20.83;;;;;;;10.27;100.00;93630.41;5092019;28;20496;-75
2022/11/17 02:01:20;;;;;;;30.87;21.57;;;;;;;10.43;100.00;93623.41;5092342;28;20465;-76
2022/11/17 02:03:50;;;;;;;33.57;21.10;;;;;;;10.47;100.00;93611.63;5091856;28;20999;-75
2022/11/17 02:06:20;;;;;;;32.90;23.03;;;;;;;10.45;100.00;93618.00;5092155;28;20520;-75
2022/11/17 02:08:51;;;;;;;34.33;24.97;;;;;;;10.42;100.00;93607.84;5091786;28;20937;-76
2022/11/17 02:11:20;;;;;;;30.03;21.60;;;;;;;10.37;100.00;93610.94;5092200;28;20812;-75
2022/11/17 02:13:51;;;;;;;30.87;21.43;;;;;;;10.38;100.00;93619.59;5091992;28;20442;-75
2022/11/17 02:16:18;;;;;;;27.20;19.83;;;;;;;10.41;100.00;93612.28;5092004;28;20501;-76
2022/11/17 02:18:46;;;;;;;32.57;22.90;;;;;;;10.43;100.00;93599.00;5056141;28;20517;-75
2022/11/17 02:21:32;;;;;;;26.57;19.20;;;;;;;10.30;100.00;93561.91;5091703;28;20445;-75
2022/11/17 02:24:23;;;;;;;26.43;19.40;;;;;;;10.37;100.00;93589.94;5091876;28;20451;-75
2022/11/17 02:27:25;;;;;;;31.20;17.37;;;;;;;10.40;100.00;93578.31;5091825;28;20449;-76
2022/11/17 02:30:00;;;;;;;23.67;15.80;;;;;;;10.32;100.00;93587.00;5029995;28;20536;-75
2022/11/17 02:32:35;;;;;;;35.67;18.40;;;;;;;10.39;100.00;93602.91;5033197;28;20529;-76
2022/11/17 02:35:16;;;;;;;29.43;21.00;;;;;;;10.38;100.00;93590.78;5033189;28;20480;-75
2022/11/17 02:37:53;;;;;;;30.30;17.67;;;;;;;10.38;100.00;93585.53;5033272;28;20983;-76
2022/11/17 02:40:26;;;;;;;23.47;15.93;;;;;;;10.41;100.00;93595.72;5033109;28;20437;-76
2022/11/17 02:45:50;;;;;;;21.97;16.63;;;;;;;10.48;100.00;93583.59;5032999;28;20580;-75
2022/11/17 02:48:21;;;;;;;21.03;14.17;;;;;;;10.45;100.00;93571.63;5033004;28;20494;-77
2022/11/17 02:50:49;;;;;;;24.60;17.00;;;;;;;10.51;100.00;93581.47;5033000;28;20471;-74
2022/11/17 02:53:17;;;;;;;19.43;14.23;;;;;;;10.63;100.00;93587.22;5032897;28;20447;-74
2022/11/17 02:55:49;;;;;;;27.77;14.40;;;;;;;10.71;100.00;93594.28;5032630;28;20484;-75
2022/11/17 02:58:16;;;;;;;23.23;14.80;;;;;;;10.75;100.00;93582.47;5032729;28;20457;-73
2022/11/17 03:00:54;;;;;;;19.77;14.13;;;;;;;10.79;100.00;93581.16;5032365;28;20472;-75
2022/11/17 03:03:37;;;;;;;23.80;16.43;;;;;;;10.79;100.00;93578.53;5032631;28;20498;-75
2022/11/17 03:06:12;;;;;;;20.87;14.77;;;;;;;10.48;100.00;93554.75;5044966;28;20442;-75
2022/11/17 03:08:47;;;;;;;27.30;20.00;;;;;;;10.57;100.00;93593.09;5095336;28;20465;-75
2022/11/17 03:11:14;;;;;;;24.67;17.30;;;;;;;10.57;100.00;93590.47;5094976;28;20449;-76
2022/11/17 03:13:49;;;;;;;22.30;12.33;;;;;;;10.65;100.00;93587.88;5095175;28;20447;-76
2022/11/17 03:16:25;;;;;;;21.90;13.90;;;;;;;10.77;100.00;93580.50;5094927;28;21217;-75
2022/11/17 03:19:03;;;;;;;19.93;12.70;;;;;;;10.69;100.00;93583.94;5095323;28;20457;-75
2022/11/17 03:21:36;;;;;;;23.67;15.37;;;;;;;10.51;100.00;93559.66;5094984;28;20444;-75
2022/11/17 03:24:10;;;;;;;20.20;14.37;;;;;;;10.66;100.00;93584.25;5075680;28;20437;-76
2022/11/17 03:26:41;;;;;;;26.33;17.17;;;;;;;10.68;100.00;93573.59;5094987;28;20474;-75
2022/11/17 03:29:13;;;;;;;24.37;16.13;;;;;;;10.76;100.00;93584.13;5095024;28;20458;-75
2022/11/17 03:31:43;;;;;;;22.40;16.37;;;;;;;10.81;100.00;93592.31;5094577;28;20444;-75
2022/11/17 03:34:15;;;;;;;21.70;16.70;;;;;;;10.88;100.00;93571.47;5094916;28;20446;-77
2022/11/17 03:36:46;;;;;;;19.63;14.93;;;;;;;10.86;100.00;93564.59;5075589;28;20528;-75
2022/11/17 03:39:19;;;;;;;27.47;16.07;;;;;;;10.87;100.00;93568.03;5094677;28;20435;-74
2022/11/17 03:41:49;;;;;;;21.27;14.87;;;;;;;10.93;100.00;93580.50;5093547;28;20508;-74
2022/11/17 03:44:20;;;;;;;36.93;23.27;;;;;;;10.93;100.00;93580.50;5094453;28;20454;-74
2022/11/17 03:46:52;;;;;;;43.60;22.70;;;;;;;10.98;100.00;93588.69;5094706;28;20465;-74
2022/11/17 03:49:27;;;;;;;38.00;27.90;;;;;;;11.00;100.00;93588.56;5094340;28;20926;-75
2022/11/17 03:51:54;;;;;;;34.40;23.70;;;;;;;10.94;100.00;93579.50;5094513;28;20491;-74
2022/11/17 03:54:21;;;;;;;33.47;24.17;;;;;;;10.95;100.00;93575.91;5094599;28;20841;-74
2022/11/17 03:56:55;;;;;;;29.03;19.87;;;;;;;10.88;100.00;93576.72;5094237;28;20490;-74
2022/11/17 03:59:29;;;;;;;28.60;21.03;;;;;;;10.84;100.00;93578.88;5094304;28;20485;-74
2022/11/17 04:01:58;;;;;;;22.60;16.87;;;;;;;10.90;100.00;93580.00;5094747;28;20446;-74
2022/11/17 04:05:04;;;;;;;23.13;14.77;;;;;;;10.96;100.00;93574.09;5094186;28;20461;-74
2022/11/17 04:07:11;;;;;;;26.30;15.57;;;;;;;10.98;100.00;93582.63;5093855;28;20434;-75
2022/11/17 04:09:38;;;;;;;21.73;14.90;;;;;;;10.98;100.00;93562.44;5093917;28;20961;-75
2022/11/17 04:17:35;;;;;;;46.03;31.50;;;;;;;10.92;100.00;93564.91;5093936;28;20419;-75
2022/11/17 04:20:01;;;;;;;51.50;34.80;;;;;;;10.95;100.00;93572.47;5093666;28;20504;-75
2022/11/17 04:22:28;;;;;;;52.00;34.63;;;;;;;11.02;100.00;93573.47;5058318;28;20827;-74
2022/11/17 04:24:55;;;;;;;37.97;26.83;;;;;;;11.02;100.00;93545.41;5058189;28;20956;-75
2022/11/17 04:30:07;;;;;;;31.07;20.77;;;;;;;11.08;100.00;93557.88;5093625;28;20439;-75
2022/11/17 04:32:35;;;;;;;24.20;18.10;;;;;;;11.13;100.00;93571.31;5093717;28;20442;-74
2022/11/17 04:35:01;;;;;;;24.63;17.30;;;;;;;11.04;100.00;93546.06;5093547;28;20825;-74
2022/11/17 04:37:28;;;;;;;26.10;16.63;;;;;;;10.90;100.00;93543.28;5057942;28;20858;-74
2022/11/17 04:39:55;;;;;;;23.87;16.70;;;;;;;10.88;100.00;93527.69;5057886;28;20982;-75
2022/11/17 04:42:21;;;;;;;31.40;19.30;;;;;;;10.92;100.00;93546.53;5093296;28;20450;-75
2022/11/17 04:44:47;;;;;;;22.93;16.00;;;;;;;10.96;100.00;93543.41;5093396;28;20447;-75
2022/11/17 04:47:14;;;;;;;29.23;16.07;;;;;;;11.05;100.00;93547.69;5093140;28;20201;-75
2022/11/17 04:49:42;;;;;;;19.37;15.07;;;;;;;11.00;100.00;93552.63;5093248;28;20861;-75
2022/11/17 04:52:09;;;;;;;24.30;13.43;;;;;;;11.06;100.00;93528.34;5093216;28;20509;-74
2022/11/17 04:54:36;;;;;;;20.90;15.07;;;;;;;10.95;100.00;93528.66;5093058;28;20439;-74
2022/11/17 04:57:03;;;;;;;24.37;15.80;;;;;;;11.02;100.00;93536.72;5092947;28;20480;-74
2022/11/17 04:59:29;;;;;;;22.20;14.47;;;;;;;11.06;100.00;93538.03;5093160;28;20943;-74
2022/11/17 05:01:59;;;;;;;23.03;15.20;;;;;;;11.10;100.00;93531.44;5057661;28;20940;-74
2022/11/17 05:07:11;;;;;;;21.10;15.57;;;;;;;11.06;100.00;93527.53;5093370;28;20430;-74
2022/11/17 05:09:38;;;;;;;23.83;15.60;;;;;;;11.00;100.00;93522.94;5092679;28;20450;-74
2022/11/17 05:14:51;;;;;;;32.00;19.83;;;;;;;10.93;100.00;93522.75;5062780;28;20541;-76
2022/11/17 05:17:17;;;;;;;31.03;20.10;;;;;;;10.96;100.00;93526.84;5084904;28;20450;-74
2022/11/17 05:19:45;;;;;;;36.60;22.50;;;;;;;10.94;100.00;93513.91;5092752;28;20804;-76
2022/11/17 05:24:59;;;;;;;36.73;24.60;;;;;;;11.04;100.00;93506.69;5092656;28;20495;-74
2022/11/17 05:27:26;;;;;;;38.43;22.90;;;;;;;11.06;100.00;93512.59;5093280;28;20462;-74
2022/11/17 05:29:53;;;;;;;39.30;24.20;;;;;;;11.07;100.00;93503.72;5093683;28;20492;-73
2022/11/17 05:32:20;;;;;;;33.93;23.00;;;;;;;11.09;100.00;93498.31;5093228;28;20456;-73
2022/11/17 05:34:47;;;;;;;40.33;29.27;;;;;;;11.13;100.00;93496.97;5093156;28;21157;-75
2022/11/17 05:37:15;;;;;;;46.33;31.43;;;;;;;11.04;100.00;93485.69;5057365;28;20501;-74
2022/11/17 05:39:42;;;;;;;43.37;30.97;;;;;;;10.94;100.00;93466.66;5096247;28;20454;-75
2022/11/17 05:42:09;;;;;;;61.03;38.10;;;;;;;11.02;100.00;93498.16;5092604;28;20984;-75
2022/11/17 05:44:35;;;;;;;49.77;36.77;;;;;;;11.02;100.00;93502.59;5093092;28;20208;-74
2022/11/17 05:47:02;;;;;;;46.77;29.43;;;;;;;10.91;100.00;93503.75;5073950;28;20456;-74
2022/11/17 05:49:29;;;;;;;32.60;23.67;;;;;;;10.76;100.00;93497.53;5093226;28;20446;-74
2022/11/17 05:51:56;;;;;;;39.17;27.07;;;;;;;10.63;100.00;93502.44;5092989;28;20450;-74
2022/11/17 05:54:25;;;;;;;34.67;24.40;;;;;;;10.65;100.00;93513.59;5092682;28;20516;-74
2022/11/17 05:56:56;;;;;;;35.57;23.97;;;;;;;10.66;100.00;93512.59;5092279;28;20884;-74
2022/11/17 05:59:26;;;;;;;31.00;20.00;;;;;;;10.66;100.00;93510.81;5091836;28;20451;-74
2022/11/17 06:01:59;;;;;;;29.57;20.93;;;;;;;10.75;100.00;93519.50;5091730;28;20991;-74
2022/11/17 06:04:26;;;;;;;30.63;20.97;;;;;;;10.79;100.00;93524.25;5091870;28;20455;-74
2022/11/17 06:06:57;;;;;;;31.33;23.33;;;;;;;10.79;100.00;93518.19;5092131;28;20455;-74
2022/11/17 06:09:27;;;;;;;37.30;25.10;;;;;;;10.78;100.00;93508.69;5092377;28;20451;-74
2022/11/17 06:11:53;;;;;;;41.70;24.40;;;;;;;10.85;100.00;93509.66;5092531;28;20460;-74
2022/11/17 06:14:20;;;;;;;33.90;22.40;;;;;;;10.91;100.00;93510.78;5092369;28;20458;-75
2022/11/17 06:16:50;;;;;;;35.33;25.00;;;;;;;10.97;100.00;93529.31;5091708;28;20485;-77
2022/11/17 06:19:21;;;;;;;37.47;24.30;;;;;;;11.04;100.00;93540.00;5091732;28;20809;-75
2022/11/17 06:21:49;;;;;;;37.13;21.73;;;;;;;11.07;100.00;93545.72;5091738;28;20440;-75
2022/11/17 06:24:16;;;;;;;35.77;25.10;;;;;;;11.00;100.00;93534.25;5091671;28;20439;-75
2022/11/17 06:26:45;;;;;;;40.33;24.90;;;;;;;11.02;100.00;93536.72;5089609;28;20454;-75
2022/11/17 06:29:13;;;;;;;31.20;22.93;;;;;;;11.05;100.00;93541.63;5092773;28;20800;-75
2022/11/17 06:31:43;;;;;;;38.23;24.90;;;;;;;11.00;100.00;93534.25;5092463;28;20505;-75
2022/11/17 06:34:10;;;;;;;35.17;24.40;;;;;;;11.01;100.00;93550.81;5092767;28;20449;-75
2022/11/17 06:36:37;;;;;;;40.00;26.00;;;;;;;11.06;100.00;93577.41;5092526;28;20484;-76
2022/11/17 06:39:04;;;;;;;28.17;22.07;;;;;;;10.93;100.00;93591.00;5092232;28;20454;-75
2022/11/17 06:41:31;;;;;;;33.23;23.70;;;;;;;10.83;100.00;93595.59;5092502;28;20446;-75
2022/11/17 06:43:59;;;;;;;40.63;23.50;;;;;;;10.71;100.00;93602.16;5092368;28;20451;-74
2022/11/17 06:46:36;;;;;;;37.90;22.10;;;;;;;10.62;100.00;93622.28;5092481;28;20442;-75
2022/11/17 06:49:04;;;;;;;31.93;21.50;;;;;;;10.60;100.00;93647.03;5091524;28;20452;-75
2022/11/17 06:51:31;;;;;;;32.90;21.80;;;;;;;10.55;100.00;93645.72;5091095;28;20444;-74
2022/11/17 06:53:58;;;;;;;38.43;22.60;;;;;;;10.55;100.00;93658.03;5091553;28;20825;-75
2022/11/17 06:56:24;;;;;;;29.00;20.47;;;;;;;10.58;100.00;93689.19;5091556;28;20812;-75
2022/11/17 06:58:51;;;;;;;33.43;20.67;;;;;;;10.67;100.00;93696.06;5091441;28;20446;-74
2022/11/17 07:01:19;;;;;;;30.70;19.10;;;;;;;10.72;100.00;93698.25;5091735;28;20476;-75
2022/11/17 07:03:46;;;;;;;36.47;22.80;;;;;;;10.76;100.00;93749.41;5055819;28;20440;-75
2022/11/17 07:06:14;;;;;;;49.23;26.90;;;;;;;10.74;100.00;93796.81;5091408;28;20945;-75
2022/11/17 07:08:41;;;;;;;31.73;19.17;;;;;;;10.72;100.00;93769.91;5091153;28;20807;-75
2022/11/17 07:11:10;;;;;;;27.13;18.80;;;;;;;10.77;100.00;93758.94;5091585;28;20446;-77
2022/11/17 07:13:38;;;;;;;26.33;14.20;;;;;;;10.84;100.00;93754.69;5091298;28;20480;-77
2022/11/17 07:16:08;;;;;;;18.47;14.03;;;;;;;10.84;100.00;93731.06;5092285;28;21013;-75
2022/11/17 07:18:37;;;;;;;11.70;10.50;;;;;;;10.94;100.00;93723.03;5060004;28;20540;-75
2022/11/17 07:21:06;;;;;;;19.10;14.03;;;;;;;10.95;100.00;93704.50;5095267;28;20954;-74
2022/11/17 07:23:34;;;;;;;27.10;16.53;;;;;;;10.92;100.00;93690.88;5095157;28;20853;-76
2022/11/17 07:26:02;;;;;;;18.93;14.20;;;;;;;10.93;100.00;93671.53;5094707;28;20909;-75
2022/11/17 07:28:29;;;;;;;25.47;17.10;;;;;;;10.82;100.00;93657.75;5094494;28;20458;-75
2022/11/17 07:30:56;;;;;;;25.70;16.03;;;;;;;10.80;100.00;93648.41;5075622;28;20435;-76
2022/11/17 07:33:23;;;;;;;19.17;13.13;;;;;;;10.73;100.00;93627.25;5094712;28;20925;-75
2022/11/17 07:35:51;;;;;;;25.30;12.50;;;;;;;10.83;100.00;93617.41;5094303;28;20981;-75
2022/11/17 07:38:18;;;;;;;19.53;12.00;;;;;;;10.96;100.00;93584.59;5084732;28;20505;-74
2022/11/17 07:40:45;;;;;;;11.87;8.73;;;;;;;11.01;100.00;93556.91;5074194;28;20444;-74
2022/11/17 07:43:11;;;;;;;10.37;7.90;;;;;;;11.07;100.00;93547.53;5074761;28;20509;-76
2022/11/17 07:45:38;;;;;;;9.13;8.13;;;;;;;11.12;100.00;93548.66;5074329;28;20448;-74
2022/11/17 07:48:06;;;;;;;15.27;7.00;;;;;;;11.21;100.00;93590.66;5073892;28;20448;-74
2022/11/17 07:50:35;;;;;;;8.80;7.37;;;;;;;11.16;100.00;93586.72;5074019;28;20460;-74
2022/11/17 07:53:03;;;;;;;8.60;4.07;;;;;;;11.15;100.00;93585.09;5075081;28;20451;-74
2022/11/17 07:55:30;;;;;;;11.50;6.23;;;;;;;11.26;100.00;93585.72;5055498;28;20460;-74
2022/11/17 07:57:58;;;;;;;9.20;7.17;;;;;;;11.22;100.00;93547.66;5038864;28;20820;-74
2022/11/17 08:00:26;;;;;;;15.93;10.47;;;;;;;11.10;100.00;93545.38;5074219;28;20861;-74
2022/11/17 08:02:53;;;;;;;7.73;5.63;;;;;;;11.22;100.00;93555.53;5073976;28;20935;-74
2022/11/17 08:05:20;;;;;;;3.73;3.13;;;;;;;11.40;100.00;93546.47;5073904;28;20501;-74
2022/11/17 08:07:54;;;;;;;16.13;9.80;;;;;;;11.56;100.00;93587.63;5073751;28;20447;-76
2022/11/17 08:10:25;;;;;;;7.97;6.70;;;;;;;11.57;100.00;93593.75;5073917;28;20450;-74
2022/11/17 08:12:53;;;;;;;14.70;8.40;;;;;;;11.59;100.00;93612.78;5088768;28;20453;-74
2022/11/17 08:15:20;;;;;;;13.27;8.27;;;;;;;11.54;100.00;93571.22;5093971;28;20933;-75
2022/11/17 08:17:51;;;;;;;14.03;9.03;;;;;;;11.48;100.00;93611.31;5094216;28;20531;-76
2022/11/17 08:20:18;;;;;;;7.87;7.07;;;;;;;11.39;100.00;93615.75;5093601;28;21019;-75
2022/11/17 08:22:46;;;;;;;12.67;8.60;;;;;;;11.30;100.00;93623.81;5093786;28;20435;-74
2022/11/17 08:25:13;;;;;;;12.07;8.63;;;;;;;11.24;100.00;93642.84;5093358;28;20475;-75
2022/11/17 08:27:41;;;;;;;12.00;8.20;;;;;;;11.28;100.00;93655.50;5057761;28;20536;-75
2022/11/17 08:30:09;;;;;;;10.30;6.73;;;;;;;11.39;100.00;93664.84;5093513;28;20447;-75
2022/11/17 08:32:36;;;;;;;16.83;7.73;;;;;;;11.40;100.00;93656.78;5058173;28;20478;-75
2022/11/17 08:35:05;;;;;;;9.77;7.10;;;;;;;11.40;100.00;93661.22;5093608;28;20935;-75
2022/11/17 08:37:32;;;;;;;12.10;8.60;;;;;;;11.39;100.00;93657.78;5093288;28;20489;-75
2022/11/17 08:39:59;;;;;;;14.00;8.10;;;;;;;11.56;100.00;93681.41;5093220;28;20439;-75
2022/11/17 08:42:26;;;;;;;14.73;10.03;;;;;;;11.57;100.00;93667.31;5093305;28;20455;-76
2022/11/17 08:44:54;;;;;;;16.50;10.67;;;;;;;11.56;100.00;93673.50;5093526;28;20443;-75
2022/11/17 08:47:21;;;;;;;13.90;9.90;;;;;;;11.75;100.00;93681.06;5093553;28;20829;-75
2022/11/17 08:49:47;;;;;;;8.87;6.87;;;;;;;11.66;100.00;93664.50;5093339;28;20466;-75
2022/11/17 08:52:14;;;;;;;8.57;7.43;;;;;;;11.55;100.00;93674.50;5093123;28;20794;-74
2022/11/17 08:54:41;;;;;;;10.33;7.77;;;;;;;11.76;100.00;93680.06;5092797;28;20517;-74
2022/11/17 08:57:08;;;;;;;16.40;10.37;;;;;;;11.95;100.00;93673.66;5093371;28;20483;-74
2022/11/17 08:59:34;;;;;;;16.43;12.40;;;;;;;11.94;100.00;93664.13;5093047;28;20451;-75
2022/11/17 09:02:03;;;;;;;12.20;11.00;;;;;;;12.07;100.00;93670.50;5092813;28;20447;-75
2022/11/17 09:04:29;;;;;;;12.97;8.00;;;;;;;12.18;100.00;93665.88;5092970;28;20447;-75
2022/11/17 09:06:56;;;;;;;17.73;9.07;;;;;;;12.19;100.00;93660.44;5092563;28;20503;-76
2022/11/17 09:09:23;;;;;;;15.17;8.60;;;;;;;12.26;100.00;93666.66;5092783;28;20436;-75
2022/11/17 09:11:50;;;;;;;9.40;6.30;;;;;;;12.23;100.00;93659.13;5092841;28;20454;-75
2022/11/17 09:14:17;;;;;;;5.90;5.30;;;;;;;12.33;100.00;93670.25;5092936;28;20494;-76
2022/11/17 09:16:43;;;;;;;9.87;7.57;;;;;;;12.50;100.00;93673.63;5092611;28;20484;-75
2022/11/17 09:19:11;;;;;;;17.40;10.97;;;;;;;12.45;100.00;93660.19;5092451;28;20793;-75
2022/11/17 09:21:38;;;;;;;18.47;12.50;;;;;;;12.44;100.00;93661.16;5092196;28;20444;-75
2022/11/17 09:24:06;;;;;;;13.90;9.97;;;;;;;12.29;100.00;93660.22;5092844;28;20451;-75
2022/11/17 09:26:32;;;;;;;9.17;6.50;;;;;;;12.33;100.00;93664.16;5092213;28;20448;-75
2022/11/17 09:29:01;;;;;;;10.13;6.70;;;;;;;12.46;100.00;93658.38;5092433;28;20465;-75
2022/11/17 09:31:29;;;;;;;12.33;8.03;;;;;;;12.59;100.00;93661.25;5092052;28;20478;-75
2022/11/17 09:33:56;;;;;;;11.67;9.40;;;;;;;12.65;100.00;93665.81;5093027;28;20454;-75
2022/11/17 09:36:24;;;;;;;13.13;9.07;;;;;;;12.54;100.00;93666.22;5073035;28;20487;-75
2022/11/17 09:38:51;;;;;;;10.17;5.80;;;;;;;12.51;100.00;93663.94;5092309;28;20441;-75
2022/11/17 09:41:25;;;;;;;8.93;5.90;;;;;;;12.37;100.00;93654.94;5091780;28;20439;-75
2022/11/17 09:44:04;;;;;;;8.60;6.90;;;;;;;12.39;100.00;93656.41;5092419;28;20493;-74
2022/11/17 09:46:42;;;;;;;8.17;6.17;;;;;;;12.30;100.00;93646.91;5091869;28;20463;-74
2022/11/17 09:49:16;;;;;;;6.77;5.70;;;;;;;12.43;100.00;93645.53;5092641;28;20474;-75
2022/11/17 09:51:48;;;;;;;22.23;7.27;;;;;;;12.46;100.00;93661.00;5092081;28;20441;-74
2022/11/17 09:54:21;;;;;;;9.03;6.83;;;;;;;12.52;100.00;93652.41;5092184;28;20432;-74
2022/11/17 09:56:49;;;;;;;9.57;7.70;;;;;;;12.58;100.00;93635.94;5091864;28;20495;-74
2022/11/17 09:59:20;;;;;;;8.80;7.93;;;;;;;12.58;100.00;93635.94;5072704;28;20503;-75
2022/11/17 10:01:47;;;;;;;7.33;6.40;;;;;;;12.64;100.00;93625.53;5092104;28;20585;-75
2022/11/17 10:04:15;;;;;;;7.67;6.90;;;;;;;12.80;100.00;93635.16;5091978;28;20943;-76
2022/11/17 10:06:46;;;;;;;10.97;9.10;;;;;;;12.89;100.00;93634.09;5091848;28;20479;-75
2022/11/17 10:09:21;;;;;;;12.77;10.07;;;;;;;13.06;100.00;93634.00;5091694;28;20485;-75
2022/11/17 10:11:48;;;;;;;13.17;10.10;;;;;;;13.16;100.00;93639.84;5092339;28;20465;-75
2022/11/17 10:14:17;;;;;;;13.70;11.20;;;;;;;13.29;100.00;93640.06;5092481;28;20447;-76
2022/11/17 10:16:54;;;;;;;15.13;10.93;;;;;;;13.38;100.00;93638.22;5092519;28;20556;-75
2022/11/17 10:19:23;;;;;;;11.80;7.60;;;;;;;13.32;100.00;93629.22;5092425;28;21003;-75
2022/11/17 10:21:54;;;;;;;7.70;5.60;;;;;;;13.27;100.00;93642.06;5092260;28;20451;-75
2022/11/17 10:24:36;;;;;;;9.50;7.60;;;;;;;13.52;100.00;93645.31;5092517;28;20467;-75
2022/11/17 10:27:05;;;;;;;12.60;8.70;;;;;;;13.60;100.00;93640.81;5057307;28;20451;-75
2022/11/17 10:29:32;;;;;;;11.50;7.20;;;;;;;13.54;100.00;93638.88;5092771;28;20454;-79
2022/11/17 10:32:00;;;;;;;9.20;8.13;;;;;;;13.61;100.00;93628.47;5092288;28;20440;-77
2022/11/17 10:34:32;;;;;;;14.20;7.60;;;;;;;13.67;100.00;93632.19;5072895;28;20471;-75
2022/11/17 10:37:06;;;;;;;9.87;7.60;;;;;;;13.73;100.00;93626.19;5092106;28;20527;-77
2022/11/17 10:39:36;;;;;;;10.67;6.90;;;;;;;13.60;100.00;93626.81;5092019;28;20493;-77
2022/11/17 10:42:18;;;;;;;11.47;9.00;;;;;;;13.70;100.00;93629.19;5092048;28;20452;-77
2022/11/17 10:44:51;;;;;;;7.03;6.33;;;;;;;13.81;100.00;93629.56;5091652;28;20497;-77
2022/11/17 10:47:31;;;;;;;8.70;5.83;;;;;;;13.76;100.00;93624.00;5091665;28;20528;-75
2022/11/17 10:50:21;;;;;;;10.00;6.60;;;;;;;13.77;100.00;93620.38;5091724;28;21088;-76
2022/11/17 10:52:51;;;;;;;6.53;5.93;;;;;;;13.64;100.00;93623.63;5096294;28;20451;-76
2022/11/17 10:55:25;;;;;;;7.80;7.00;;;;;;;13.61;100.00;93625.81;5096381;28;20447;-76
2022/11/17 10:57:56;;;;;;;9.00;8.10;;;;;;;13.62;100.00;93625.63;5028091;28;20536;-76
2022/11/17 11:00:41;;;;;;;9.20;8.30;;;;;;;13.67;100.00;93633.00;5095935;28;20471;-77
2022/11/17 11:03:20;;;;;;;9.40;7.30;;;;;;;13.72;100.00;93633.28;5060216;28;20973;-76
2022/11/17 11:06:02;;;;;;;11.43;6.57;;;;;;;13.83;100.00;93637.28;5095939;28;20755;-76
2022/11/17 11:08:38;;;;;;;10.13;6.10;;;;;;;13.85;100.00;93637.91;5060727;28;20451;-76
2022/11/17 11:11:12;;;;;;;7.37;5.40;;;;;;;14.43;100.00;93638.94;5096165;28;20475;-76
2022/11/17 11:13:45;;;;;;;6.97;6.30;;;;;;;14.39;100.00;93648.19;5095977;28;20499;-78
2022/11/17 11:16:12;;;;;;;7.80;5.83;;;;;;;14.25;100.00;93637.50;5095776;28;20454;-77
2022/11/17 11:18:39;;;;;;;14.13;7.13;;;;;;;14.26;100.00;93649.69;5096008;28;20483;-77
2022/11/17 11:21:13;;;;;;;10.30;7.47;;;;;;;14.28;100.00;93641.56;5096103;28;20443;-76
2022/11/17 11:23:51;;;;;;;8.43;7.00;;;;;;;14.18;99.96;93630.50;5095962;28;20446;-78
2022/11/17 11:26:39;;;;;;;12.30;8.70;;;;;;;14.21;100.00;93643.31;5095832;28;20914;-77
2022/11/17 11:29:20;;;;;;;9.83;7.37;;;;;;;14.24;100.00;93635.84;5095911;28;20477;-77
2022/11/17 11:31:59;;;;;;;17.13;9.87;;;;;;;14.23;100.00;93630.75;5095882;28;20449;-75
2022/11/17 11:34:44;;;;;;;12.47;9.30;;;;;;;14.25;100.00;93634.84;5095555;28;20813;-75
2022/11/17 11:37:13;;;;;;;12.80;9.43;;;;;;;14.24;100.00;93632.41;5089906;28;20488;-75
2022/11/17 11:39:51;;;;;;;10.47;7.03;;;;;;;14.16;100.00;93630.66;5086701;28;20456;-75
2022/11/17 11:42:45;;;;;;;8.80;7.10;;;;;;;14.17;100.00;93629.69;5075177;28;20460;-75
2022/11/17 11:45:18;;;;;;;10.80;6.70;;;;;;;14.21;100.00;93640.69;5032639;28;20997;-76
2022/11/17 11:48:06;;;;;;;9.20;6.20;;;;;;;14.33;100.00;93636.56;5032432;28;20493;-75
2022/11/17 11:50:37;;;;;;;7.47;6.70;;;;;;;14.30;100.00;93633.47;5032254;28;20447;-75